sensor_id;sensor_type;location;lat;lon;timestamp;pressure;altitude;pressure_sealevel;temperature;humidity
10464;BME280;5279;42.048;24.638;2023-11-19T00:00:51;97260.03;;;6.42;64.44
10464;BME280;5279;42.048;24.638;2023-11-19T00:03:18;97268.44;;;6.36;65.72
10464;BME280;5279;42.048;24.638;2023-11-19T00:05:45;97273.13;;;6.33;65.38
10464;BME280;5279;42.048;24.638;2023-11-19T00:08:14;97276.41;;;6.25;64.88
10464;BME280;5279;42.048;24.638;2023-11-19T00:10:41;97288.56;;;6.26;65.83
10464;BME280;5279;42.048;24.638;2023-11-19T00:13:08;97307.47;;;6.31;67.29
10464;BME280;5279;42.048;24.638;2023-11-19T00:15:35;97312.47;;;6.34;65.75
10464;BME280;5279;42.048;24.638;2023-11-19T00:18:02;97291.19;;;6.37;65.38
10464;BME280;5279;42.048;24.638;2023-11-19T00:20:30;97294.25;;;6.42;65.11
10464;BME280;5279;42.048;24.638;2023-11-19T00:22:57;97291.44;;;6.34;65.67
10464;BME280;5279;42.048;24.638;2023-11-19T00:25:25;97308.06;;;6.35;66.15
10464;BME280;5279;42.048;24.638;2023-11-19T00:27:52;97303.59;;;6.35;65.38
10464;BME280;5279;42.048;24.638;2023-11-19T00:30:22;97294.06;;;6.34;65.89
10464;BME280;5279;42.048;24.638;2023-11-19T00:32:49;97300.28;;;6.33;65.77
10464;BME280;5279;42.048;24.638;2023-11-19T00:35:16;97298.59;;;6.32;66.32
10464;BME280;5279;42.048;24.638;2023-11-19T00:37:43;97298.94;;;6.39;67.01
10464;BME280;5279;42.048;24.638;2023-11-19T00:40:11;97302.19;;;6.31;65.93
10464;BME280;5279;42.048;24.638;2023-11-19T00:42:39;97301.69;;;6.37;65.09
10464;BME280;5279;42.048;24.638;2023-11-19T00:45:06;97310.53;;;6.36;65.41
10464;BME280;5279;42.048;24.638;2023-11-19T00:47:36;97306.97;;;6.37;65.98
10464;BME280;5279;42.048;24.638;2023-11-19T00:50:03;97315.69;;;6.38;66.42
10464;BME280;5279;42.048;24.638;2023-11-19T00:52:30;97305.47;;;6.44;65.60
10464;BME280;5279;42.048;24.638;2023-11-19T00:54:57;97305.03;;;6.39;65.29
10464;BME280;5279;42.048;24.638;2023-11-19T00:57:24;97318.88;;;6.41;66.13
10464;BME280;5279;42.048;24.638;2023-11-19T00:59:53;97311.38;;;6.37;66.70
10464;BME280;5279;42.048;24.638;2023-11-19T01:02:20;97327.75;;;6.40;65.83
10464;BME280;5279;42.048;24.638;2023-11-19T01:04:47;97318.34;;;6.38;66.98
10464;BME280;5279;42.048;24.638;2023-11-19T01:07:14;97317.50;;;6.37;66.44
10464;BME280;5279;42.048;24.638;2023-11-19T01:09:41;97317.50;;;6.37;66.31
10464;BME280;5279;42.048;24.638;2023-11-19T01:12:13;97303.44;;;6.48;66.80
10464;BME280;5279;42.048;24.638;2023-11-19T01:14:41;97291.38;;;6.45;66.21
10464;BME280;5279;42.048;24.638;2023-11-19T01:17:10;97309.19;;;6.42;66.75
10464;BME280;5279;42.048;24.638;2023-11-19T01:19:36;97311.22;;;6.49;66.47
10464;BME280;5279;42.048;24.638;2023-11-19T01:22:04;97315.53;;;6.50;65.42
10464;BME280;5279;42.048;24.638;2023-11-19T01:25:01;97312.41;;;6.56;65.34
10464;BME280;5279;42.048;24.638;2023-11-19T01:27:28;97307.16;;;6.45;65.62
10464;BME280;5279;42.048;24.638;2023-11-19T01:29:55;97304.88;;;6.52;66.51
10464;BME280;5279;42.048;24.638;2023-11-19T01:32:23;97303.00;;;6.64;65.62
10464;BME280;5279;42.048;24.638;2023-11-19T01:34:50;97313.16;;;6.68;66.14
10464;BME280;5279;42.048;24.638;2023-11-19T01:37:19;97310.97;;;6.52;65.79
10464;BME280;5279;42.048;24.638;2023-11-19T01:39:46;97316.72;;;6.46;66.25
10464;BME280;5279;42.048;24.638;2023-11-19T01:42:13;97295.84;;;6.34;66.66
10464;BME280;5279;42.048;24.638;2023-11-19T01:44:41;97296.19;;;6.40;67.10
10464;BME280;5279;42.048;24.638;2023-11-19T01:47:08;97298.84;;;6.29;66.85
10464;BME280;5279;42.048;24.638;2023-11-19T01:49:36;97303.66;;;6.24;67.37
10464;BME280;5279;42.048;24.638;2023-11-19T01:52:04;97311.22;;;6.18;67.97
10464;BME280;5279;42.048;24.638;2023-11-19T01:54:37;97312.03;;;6.18;68.15
10464;BME280;5279;42.048;24.638;2023-11-19T01:57:04;97311.69;;;6.23;68.05
10464;BME280;5279;42.048;24.638;2023-11-19T01:59:31;97315.13;;;6.23;68.51
10464;BME280;5279;42.048;24.638;2023-11-19T02:01:58;97299.59;;;6.20;68.26
10464;BME280;5279;42.048;24.638;2023-11-19T02:04:25;97320.31;;;6.14;68.49
10464;BME280;5279;42.048;24.638;2023-11-19T02:06:56;97309.66;;;6.15;68.84
10464;BME280;5279;42.048;24.638;2023-11-19T02:09:25;97309.56;;;6.17;69.13
10464;BME280;5279;42.048;24.638;2023-11-19T02:11:53;97301.53;;;6.18;68.51
10464;BME280;5279;42.048;24.638;2023-11-19T02:14:23;97308.72;;;6.16;69.39
10464;BME280;5279;42.048;24.638;2023-11-19T02:16:52;97305.84;;;6.08;69.33
10464;BME280;5279;42.048;24.638;2023-11-19T02:19:19;97329.78;;;6.05;70.05
10464;BME280;5279;42.048;24.638;2023-11-19T02:21:46;97324.75;;;6.13;69.16
10464;BME280;5279;42.048;24.638;2023-11-19T02:24:17;97314.72;;;6.07;69.36
10464;BME280;5279;42.048;24.638;2023-11-19T02:26:57;97326.16;;;6.17;70.15
10464;BME280;5279;42.048;24.638;2023-11-19T02:29:27;97342.41;;;6.22;69.27
10464;BME280;5279;42.048;24.638;2023-11-19T02:31:54;97343.13;;;6.24;70.25
10464;BME280;5279;42.048;24.638;2023-11-19T02:34:22;97337.00;;;6.24;68.73
10464;BME280;5279;42.048;24.638;2023-11-19T02:36:48;97340.50;;;6.24;69.04
10464;BME280;5279;42.048;24.638;2023-11-19T02:39:15;97341.22;;;6.15;70.51
10464;BME280;5279;42.048;24.638;2023-11-19T02:41:46;97353.44;;;6.16;71.86
10464;BME280;5279;42.048;24.638;2023-11-19T02:44:16;97342.44;;;6.11;69.60
10464;BME280;5279;42.048;24.638;2023-11-19T02:46:44;97330.25;;;6.10;69.34
10464;BME280;5279;42.048;24.638;2023-11-19T02:49:13;97348.44;;;6.02;69.96
10464;BME280;5279;42.048;24.638;2023-11-19T02:51:40;97346.53;;;6.04;69.95
10464;BME280;5279;42.048;24.638;2023-11-19T02:54:07;97348.19;;;6.05;69.70
10464;BME280;5279;42.048;24.638;2023-11-19T02:56:35;97361.94;;;6.09;69.77
10464;BME280;5279;42.048;24.638;2023-11-19T02:59:04;97359.66;;;6.15;72.70
10464;BME280;5279;42.048;24.638;2023-11-19T03:01:40;97356.56;;;6.10;68.92
10464;BME280;5279;42.048;24.638;2023-11-19T03:04:10;97352.63;;;6.04;69.49
10464;BME280;5279;42.048;24.638;2023-11-19T03:06:38;97360.16;;;5.98;70.43
10464;BME280;5279;42.048;24.638;2023-11-19T03:09:05;97357.75;;;6.06;69.78
10464;BME280;5279;42.048;24.638;2023-11-19T03:11:35;97354.28;;;6.05;69.18
10464;BME280;5279;42.048;24.638;2023-11-19T03:14:02;97345.44;;;6.07;69.30
10464;BME280;5279;42.048;24.638;2023-11-19T03:16:29;97340.28;;;6.05;69.48
10464;BME280;5279;42.048;24.638;2023-11-19T03:18:56;97360.13;;;6.09;70.20
10464;BME280;5279;42.048;24.638;2023-11-19T03:21:28;97362.81;;;5.98;69.78
10464;BME280;5279;42.048;24.638;2023-11-19T03:23:56;97364.22;;;6.02;69.30
10464;BME280;5279;42.048;24.638;2023-11-19T03:26:21;97367.56;;;6.04;68.37
10464;BME280;5279;42.048;24.638;2023-11-19T03:28:48;97375.69;;;6.01;67.69
10464;BME280;5279;42.048;24.638;2023-11-19T03:31:15;97371.13;;;6.14;67.73
10464;BME280;5279;42.048;24.638;2023-11-19T03:33:42;97366.34;;;6.08;67.41
10464;BME280;5279;42.048;24.638;2023-11-19T03:36:09;97364.56;;;6.09;67.68
10464;BME280;5279;42.048;24.638;2023-11-19T03:38:37;97362.41;;;6.14;68.34
10464;BME280;5279;42.048;24.638;2023-11-19T03:41:10;97342.66;;;6.08;69.18
10464;BME280;5279;42.048;24.638;2023-11-19T03:43:37;97347.69;;;6.11;68.96
10464;BME280;5279;42.048;24.638;2023-11-19T03:46:04;97340.19;;;6.07;68.75
10464;BME280;5279;42.048;24.638;2023-11-19T03:48:31;97350.09;;;6.03;69.76
10464;BME280;5279;42.048;24.638;2023-11-19T03:50:58;97333.25;;;6.05;69.25
10464;BME280;5279;42.048;24.638;2023-11-19T03:53:25;97346.66;;;5.91;69.97
10464;BME280;5279;42.048;24.638;2023-11-19T03:55:53;97344.38;;;5.87;70.47
10464;BME280;5279;42.048;24.638;2023-11-19T03:58:20;97341.03;;;5.85;70.98
10464;BME280;5279;42.048;24.638;2023-11-19T04:00:48;97342.94;;;5.83;70.96
10464;BME280;5279;42.048;24.638;2023-11-19T04:03:15;97352.28;;;5.87;70.50
10464;BME280;5279;42.048;24.638;2023-11-19T04:05:42;97353.25;;;5.86;70.77
10464;BME280;5279;42.048;24.638;2023-11-19T04:08:09;97355.59;;;5.78;71.02
10464;BME280;5279;42.048;24.638;2023-11-19T04:10:36;97351.66;;;5.72;70.18
10464;BME280;5279;42.048;24.638;2023-11-19T04:13:04;97359.56;;;5.72;70.68
10464;BME280;5279;42.048;24.638;2023-11-19T04:15:31;97366.84;;;5.69;70.46
10464;BME280;5279;42.048;24.638;2023-11-19T04:17:58;97391.22;;;5.71;70.02
10464;BME280;5279;42.048;24.638;2023-11-19T04:20:25;97368.75;;;5.67;70.87
10464;BME280;5279;42.048;24.638;2023-11-19T04:22:52;97382.03;;;5.65;70.23
10464;BME280;5279;42.048;24.638;2023-11-19T04:25:19;97374.25;;;5.64;70.02
10464;BME280;5279;42.048;24.638;2023-11-19T04:27:46;97370.19;;;5.60;69.80
10464;BME280;5279;42.048;24.638;2023-11-19T04:30:15;97373.91;;;5.57;69.77
10464;BME280;5279;42.048;24.638;2023-11-19T04:32:42;97377.84;;;5.63;70.36
10464;BME280;5279;42.048;24.638;2023-11-19T04:35:09;97392.44;;;5.56;70.03
10464;BME280;5279;42.048;24.638;2023-11-19T04:37:36;97391.09;;;5.61;70.33
10464;BME280;5279;42.048;24.638;2023-11-19T04:40:03;97395.19;;;5.65;70.53
10464;BME280;5279;42.048;24.638;2023-11-19T04:42:30;97402.22;;;5.65;70.32
10464;BME280;5279;42.048;24.638;2023-11-19T04:44:57;97392.19;;;5.59;71.31
10464;BME280;5279;42.048;24.638;2023-11-19T04:47:26;97401.38;;;5.64;70.51
10464;BME280;5279;42.048;24.638;2023-11-19T04:49:53;97400.19;;;5.57;70.50
10464;BME280;5279;42.048;24.638;2023-11-19T04:52:19;97403.66;;;5.58;71.60
10464;BME280;5279;42.048;24.638;2023-11-19T04:54:46;97400.66;;;5.51;70.96
10464;BME280;5279;42.048;24.638;2023-11-19T04:57:13;97404.13;;;5.40;71.24
10464;BME280;5279;42.048;24.638;2023-11-19T04:59:40;97406.00;;;5.38;70.96
10464;BME280;5279;42.048;24.638;2023-11-19T05:02:08;97391.94;;;5.39;71.07
10464;BME280;5279;42.048;24.638;2023-11-19T05:04:37;97404.34;;;5.37;71.46
10464;BME280;5279;42.048;24.638;2023-11-19T05:07:04;97405.19;;;5.38;71.10
10464;BME280;5279;42.048;24.638;2023-11-19T05:09:32;97411.72;;;5.32;71.62
10464;BME280;5279;42.048;24.638;2023-11-19T05:11:59;97408.38;;;5.30;71.91
10464;BME280;5279;42.048;24.638;2023-11-19T05:14:27;97394.78;;;5.25;71.43
10464;BME280;5279;42.048;24.638;2023-11-19T05:16:54;97398.72;;;5.31;72.46
10464;BME280;5279;42.048;24.638;2023-11-19T05:19:20;97397.88;;;5.30;70.91
10464;BME280;5279;42.048;24.638;2023-11-19T05:21:49;97399.09;;;5.37;70.73
10464;BME280;5279;42.048;24.638;2023-11-19T05:24:17;97400.19;;;5.35;70.86
10464;BME280;5279;42.048;24.638;2023-11-19T05:26:44;97400.03;;;5.36;70.43
10464;BME280;5279;42.048;24.638;2023-11-19T05:29:12;97416.50;;;5.38;70.19
10464;BME280;5279;42.048;24.638;2023-11-19T05:31:39;97400.75;;;5.38;70.24
10464;BME280;5279;42.048;24.638;2023-11-19T05:34:06;97408.75;;;5.37;69.37
10464;BME280;5279;42.048;24.638;2023-11-19T05:36:33;97412.00;;;5.51;69.61
10464;BME280;5279;42.048;24.638;2023-11-19T05:39:02;97425.63;;;5.57;69.08
10464;BME280;5279;42.048;24.638;2023-11-19T05:41:30;97418.22;;;5.62;68.89
10464;BME280;5279;42.048;24.638;2023-11-19T05:43:57;97421.56;;;5.64;68.24
10464;BME280;5279;42.048;24.638;2023-11-19T05:46:23;97425.13;;;5.63;69.18
10464;BME280;5279;42.048;24.638;2023-11-19T05:48:51;97430.41;;;5.63;68.12
10464;BME280;5279;42.048;24.638;2023-11-19T05:51:18;97430.88;;;5.57;68.39
10464;BME280;5279;42.048;24.638;2023-11-19T05:53:45;97430.28;;;5.53;68.38
10464;BME280;5279;42.048;24.638;2023-11-19T05:56:13;97424.91;;;5.55;68.89
10464;BME280;5279;42.048;24.638;2023-11-19T05:58:41;97423.97;;;5.56;68.77
10464;BME280;5279;42.048;24.638;2023-11-19T06:01:10;97423.97;;;5.56;68.53
10464;BME280;5279;42.048;24.638;2023-11-19T06:03:36;97428.00;;;5.60;68.61
10464;BME280;5279;42.048;24.638;2023-11-19T06:06:04;97421.81;;;5.61;68.32
10464;BME280;5279;42.048;24.638;2023-11-19T06:08:30;97424.56;;;5.59;68.40
10464;BME280;5279;42.048;24.638;2023-11-19T06:10:57;97431.84;;;5.56;68.42
10464;BME280;5279;42.048;24.638;2023-11-19T06:13:27;97427.44;;;5.56;68.43
10464;BME280;5279;42.048;24.638;2023-11-19T06:15:56;97424.91;;;5.66;67.79
10464;BME280;5279;42.048;24.638;2023-11-19T06:18:23;97428.75;;;5.62;68.02
10464;BME280;5279;42.048;24.638;2023-11-19T06:20:50;97436.88;;;5.70;66.75
10464;BME280;5279;42.048;24.638;2023-11-19T06:23:17;97432.22;;;5.62;67.08
10464;BME280;5279;42.048;24.638;2023-11-19T06:25:45;97440.66;;;5.66;66.79
10464;BME280;5279;42.048;24.638;2023-11-19T06:28:11;97444.28;;;5.65;66.95
10464;BME280;5279;42.048;24.638;2023-11-19T06:30:40;97447.38;;;5.70;67.27
10464;BME280;5279;42.048;24.638;2023-11-19T06:33:06;97433.53;;;5.68;66.53
10464;BME280;5279;42.048;24.638;2023-11-19T06:35:34;97434.72;;;5.75;66.62
10464;BME280;5279;42.048;24.638;2023-11-19T06:38:02;97451.94;;;5.79;66.52
10464;BME280;5279;42.048;24.638;2023-11-19T06:40:29;97462.19;;;5.82;65.58
10464;BME280;5279;42.048;24.638;2023-11-19T06:42:56;97470.25;;;5.91;65.87
10464;BME280;5279;42.048;24.638;2023-11-19T06:45:24;97465.59;;;6.06;64.68
10464;BME280;5279;42.048;24.638;2023-11-19T06:47:53;97467.84;;;6.22;64.23
10464;BME280;5279;42.048;24.638;2023-11-19T06:50:20;97487.56;;;6.27;64.01
10464;BME280;5279;42.048;24.638;2023-11-19T06:52:47;97479.09;;;6.24;63.53
10464;BME280;5279;42.048;24.638;2023-11-19T06:55:14;97473.22;;;6.20;63.67
10464;BME280;5279;42.048;24.638;2023-11-19T06:57:42;97475.28;;;6.17;63.30
10464;BME280;5279;42.048;24.638;2023-11-19T07:00:10;97470.13;;;6.15;63.89
10464;BME280;5279;42.048;24.638;2023-11-19T07:02:37;97470.72;;;6.19;65.52
10464;BME280;5279;42.048;24.638;2023-11-19T07:05:07;97472.28;;;6.10;63.87
10464;BME280;5279;42.048;24.638;2023-11-19T07:07:34;97465.34;;;6.09;63.33
10464;BME280;5279;42.048;24.638;2023-11-19T07:10:00;97474.66;;;6.02;64.17
10464;BME280;5279;42.048;24.638;2023-11-19T07:12:29;97469.63;;;5.99;64.72
10464;BME280;5279;42.048;24.638;2023-11-19T07:14:56;97476.22;;;5.93;64.57
10464;BME280;5279;42.048;24.638;2023-11-19T07:17:23;97475.13;;;5.96;65.41
10464;BME280;5279;42.048;24.638;2023-11-19T07:19:50;97481.75;;;6.01;64.20
10464;BME280;5279;42.048;24.638;2023-11-19T07:22:19;97491.03;;;6.05;64.50
10464;BME280;5279;42.048;24.638;2023-11-19T07:24:46;97498.84;;;6.07;64.02
10464;BME280;5279;42.048;24.638;2023-11-19T07:27:12;97485.69;;;6.07;63.94
10464;BME280;5279;42.048;24.638;2023-11-19T07:29:43;97492.59;;;6.08;64.16
10464;BME280;5279;42.048;24.638;2023-11-19T07:32:09;97487.59;;;6.16;63.90
10464;BME280;5279;42.048;24.638;2023-11-19T07:34:37;97497.16;;;6.28;64.26
10464;BME280;5279;42.048;24.638;2023-11-19T07:37:15;97497.41;;;6.79;62.48
10464;BME280;5279;42.048;24.638;2023-11-19T07:39:43;97484.41;;;7.30;59.66
10464;BME280;5279;42.048;24.638;2023-11-19T07:42:10;97521.28;;;7.83;58.65
10464;BME280;5279;42.048;24.638;2023-11-19T07:44:37;97512.97;;;8.08;56.57
10464;BME280;5279;42.048;24.638;2023-11-19T07:47:04;97507.72;;;8.38;56.38
10464;BME280;5279;42.048;24.638;2023-11-19T07:49:31;97500.03;;;8.85;56.54
10464;BME280;5279;42.048;24.638;2023-11-19T07:51:58;97496.47;;;9.14;53.19
10464;BME280;5279;42.048;24.638;2023-11-19T07:54:25;97516.50;;;9.17;51.91
10464;BME280;5279;42.048;24.638;2023-11-19T07:56:54;97508.16;;;9.21;52.73
10464;BME280;5279;42.048;24.638;2023-11-19T07:59:21;97507.06;;;9.24;52.35
10464;BME280;5279;42.048;24.638;2023-11-19T08:05:10;97496.19;;;9.46;51.92
10464;BME280;5279;42.048;24.638;2023-11-19T08:07:37;97512.50;;;9.51;50.93
10464;BME280;5279;42.048;24.638;2023-11-19T08:10:04;97514.56;;;9.19;51.32
10464;BME280;5279;42.048;24.638;2023-11-19T08:12:36;97509.53;;;9.06;51.78
10464;BME280;5279;42.048;24.638;2023-11-19T08:15:04;97491.47;;;9.21;52.42
10464;BME280;5279;42.048;24.638;2023-11-19T08:17:31;97510.94;;;9.29;51.98
10464;BME280;5279;42.048;24.638;2023-11-19T08:19:57;97524.72;;;9.52;49.73
10464;BME280;5279;42.048;24.638;2023-11-19T08:22:26;97527.38;;;9.33;50.75
10464;BME280;5279;42.048;24.638;2023-11-19T08:24:53;97526.41;;;9.15;51.25
10464;BME280;5279;42.048;24.638;2023-11-19T08:27:20;97526.31;;;8.76;52.44
10464;BME280;5279;42.048;24.638;2023-11-19T08:29:53;97535.66;;;8.90;51.12
10464;BME280;5279;42.048;24.638;2023-11-19T08:32:22;97527.53;;;8.72;52.21
10464;BME280;5279;42.048;24.638;2023-11-19T08:34:49;97514.72;;;8.58;52.10
10464;BME280;5279;42.048;24.638;2023-11-19T08:37:16;97514.22;;;8.13;52.37
10464;BME280;5279;42.048;24.638;2023-11-19T08:39:46;97533.84;;;7.90;53.67
10464;BME280;5279;42.048;24.638;2023-11-19T08:42:13;97518.03;;;8.00;54.95
10464;BME280;5279;42.048;24.638;2023-11-19T08:44:40;97512.44;;;8.94;52.12
10464;BME280;5279;42.048;24.638;2023-11-19T08:47:11;97526.72;;;10.16;47.85
10464;BME280;5279;42.048;24.638;2023-11-19T08:49:38;97527.84;;;10.87;46.51
10464;BME280;5279;42.048;24.638;2023-11-19T08:52:05;97528.72;;;10.78;46.30
10464;BME280;5279;42.048;24.638;2023-11-19T08:54:33;97521.75;;;11.57;45.12
10464;BME280;5279;42.048;24.638;2023-11-19T08:57:00;97515.16;;;11.79;43.67
10464;BME280;5279;42.048;24.638;2023-11-19T08:59:28;97508.88;;;11.44;44.13
10464;BME280;5279;42.048;24.638;2023-11-19T09:01:55;97515.09;;;11.88;43.06
10464;BME280;5279;42.048;24.638;2023-11-19T09:04:23;97504.06;;;12.35;42.20
10464;BME280;5279;42.048;24.638;2023-11-19T09:06:50;97503.94;;;12.11;42.88
10464;BME280;5279;42.048;24.638;2023-11-19T09:09:17;97506.59;;;11.67;43.13
10464;BME280;5279;42.048;24.638;2023-11-19T09:11:44;97502.03;;;11.77;42.79
10464;BME280;5279;42.048;24.638;2023-11-19T09:14:11;97509.78;;;11.88;42.47
10464;BME280;5279;42.048;24.638;2023-11-19T09:16:38;97501.09;;;11.86;43.05
10464;BME280;5279;42.048;24.638;2023-11-19T09:19:05;97509.59;;;12.75;40.93
10464;BME280;5279;42.048;24.638;2023-11-19T09:21:33;97518.13;;;13.61;39.23
10464;BME280;5279;42.048;24.638;2023-11-19T09:24:03;97508.44;;;14.33;38.82
10464;BME280;5279;42.048;24.638;2023-11-19T09:26:30;97495.03;;;14.65;36.81
10464;BME280;5279;42.048;24.638;2023-11-19T09:28:58;97490.00;;;14.70;35.85
10464;BME280;5279;42.048;24.638;2023-11-19T09:31:25;97499.00;;;14.69;37.27
10464;BME280;5279;42.048;24.638;2023-11-19T09:33:51;97503.56;;;14.91;35.36
10464;BME280;5279;42.048;24.638;2023-11-19T09:36:18;97499.06;;;14.53;36.67
10464;BME280;5279;42.048;24.638;2023-11-19T09:38:49;97479.69;;;13.80;37.15
10464;BME280;5279;42.048;24.638;2023-11-19T09:41:17;97486.94;;;14.26;36.58
10464;BME280;5279;42.048;24.638;2023-11-19T09:43:45;97481.81;;;14.08;36.81
10464;BME280;5279;42.048;24.638;2023-11-19T09:46:13;97492.88;;;14.60;36.37
10464;BME280;5279;42.048;24.638;2023-11-19T09:48:42;97489.13;;;14.14;37.46
10464;BME280;5279;42.048;24.638;2023-11-19T09:51:09;97489.88;;;15.25;36.71
10464;BME280;5279;42.048;24.638;2023-11-19T09:53:37;97483.69;;;15.55;35.09
10464;BME280;5279;42.048;24.638;2023-11-19T09:56:06;97477.31;;;15.79;33.98
10464;BME280;5279;42.048;24.638;2023-11-19T09:58:34;97483.88;;;15.54;34.37
10464;BME280;5279;42.048;24.638;2023-11-19T10:01:02;97484.53;;;15.93;34.05
10464;BME280;5279;42.048;24.638;2023-11-19T10:03:34;97490.03;;;15.77;33.81
10464;BME280;5279;42.048;24.638;2023-11-19T10:06:03;97489.09;;;14.31;35.25
10464;BME280;5279;42.048;24.638;2023-11-19T10:08:32;97507.22;;;14.51;35.47
10464;BME280;5279;42.048;24.638;2023-11-19T10:10:58;97509.69;;;15.00;35.04
10464;BME280;5279;42.048;24.638;2023-11-19T10:13:58;97499.41;;;15.73;33.78
10464;BME280;5279;42.048;24.638;2023-11-19T10:16:29;97493.81;;;15.06;34.21
10464;BME280;5279;42.048;24.638;2023-11-19T10:18:57;97495.66;;;15.37;34.81
10464;BME280;5279;42.048;24.638;2023-11-19T10:21:24;97507.59;;;15.18;33.99
10464;BME280;5279;42.048;24.638;2023-11-19T10:23:54;97491.63;;;15.86;34.43
10464;BME280;5279;42.048;24.638;2023-11-19T10:26:22;97485.38;;;16.75;32.03
10464;BME280;5279;42.048;24.638;2023-11-19T10:28:50;97493.97;;;16.70;32.37
10464;BME280;5279;42.048;24.638;2023-11-19T10:31:19;97479.78;;;16.03;33.13
10464;BME280;5279;42.048;24.638;2023-11-19T10:33:50;97465.63;;;15.35;33.35
10464;BME280;5279;42.048;24.638;2023-11-19T10:36:17;97482.09;;;16.21;33.18
10464;BME280;5279;42.048;24.638;2023-11-19T10:38:52;97462.47;;;17.59;31.27
10464;BME280;5279;42.048;24.638;2023-11-19T10:41:27;97463.09;;;19.19;30.10
10464;BME280;5279;42.048;24.638;2023-11-19T10:43:56;97469.53;;;18.77;29.05
10464;BME280;5279;42.048;24.638;2023-11-19T10:46:36;97473.34;;;18.96;29.12
10464;BME280;5279;42.048;24.638;2023-11-19T10:49:09;97457.50;;;18.67;29.05
10464;BME280;5279;42.048;24.638;2023-11-19T10:51:36;97451.44;;;20.38;28.85
10464;BME280;5279;42.048;24.638;2023-11-19T10:54:06;97439.75;;;21.28;25.71
10464;BME280;5279;42.048;24.638;2023-11-19T10:56:33;97453.72;;;19.82;26.86
10464;BME280;5279;42.048;24.638;2023-11-19T10:59:01;97458.25;;;18.95;28.96
10464;BME280;5279;42.048;24.638;2023-11-19T11:01:34;97443.19;;;19.81;28.76
10464;BME280;5279;42.048;24.638;2023-11-19T11:04:11;97440.31;;;18.54;28.58
10464;BME280;5279;42.048;24.638;2023-11-19T11:06:40;97427.66;;;18.48;29.64
10464;BME280;5279;42.048;24.638;2023-11-19T11:09:08;97453.47;;;17.94;29.10
10464;BME280;5279;42.048;24.638;2023-11-19T11:11:38;97441.25;;;17.85;29.30
10464;BME280;5279;42.048;24.638;2023-11-19T11:14:07;97441.28;;;18.47;29.06
10464;BME280;5279;42.048;24.638;2023-11-19T11:16:37;97455.91;;;18.44;29.09
10464;BME280;5279;42.048;24.638;2023-11-19T11:19:09;97447.00;;;18.10;29.32
10464;BME280;5279;42.048;24.638;2023-11-19T11:21:38;97455.13;;;16.60;30.73
10464;BME280;5279;42.048;24.638;2023-11-19T11:24:25;97450.41;;;16.76;31.01
10464;BME280;5279;42.048;24.638;2023-11-19T11:30:20;97418.53;;;16.96;30.95
10464;BME280;5279;42.048;24.638;2023-11-19T11:32:57;97420.88;;;17.63;30.42
10464;BME280;5279;42.048;24.638;2023-11-19T11:35:30;97419.22;;;18.17;28.92
10464;BME280;5279;42.048;24.638;2023-11-19T11:38:04;97404.13;;;17.39;30.02
10464;BME280;5279;42.048;24.638;2023-11-19T11:40:33;97396.75;;;17.41;30.74
10464;BME280;5279;42.048;24.638;2023-11-19T11:43:01;97391.38;;;17.84;30.12
10464;BME280;5279;42.048;24.638;2023-11-19T11:45:38;97380.84;;;19.05;28.66
10464;BME280;5279;42.048;24.638;2023-11-19T11:48:15;97377.53;;;20.41;27.42
10464;BME280;5279;42.048;24.638;2023-11-19T11:50:57;97369.28;;;20.29;27.20
10464;BME280;5279;42.048;24.638;2023-11-19T11:53:25;97372.63;;;20.05;27.56
10464;BME280;5279;42.048;24.638;2023-11-19T11:55:57;97371.84;;;19.85;27.16
10464;BME280;5279;42.048;24.638;2023-11-19T11:58:35;97378.22;;;18.23;28.88
10464;BME280;5279;42.048;24.638;2023-11-19T12:01:05;97377.22;;;17.69;29.93
10464;BME280;5279;42.048;24.638;2023-11-19T12:03:38;97355.78;;;17.69;30.04
10464;BME280;5279;42.048;24.638;2023-11-19T12:06:05;97370.13;;;18.17;29.01
10464;BME280;5279;42.048;24.638;2023-11-19T12:08:34;97361.66;;;16.94;30.34
10464;BME280;5279;42.048;24.638;2023-11-19T12:11:01;97358.38;;;17.13;30.60
10464;BME280;5279;42.048;24.638;2023-11-19T12:13:52;97357.88;;;18.42;29.66
10464;BME280;5279;42.048;24.638;2023-11-19T12:16:21;97363.91;;;19.11;28.12
10464;BME280;5279;42.048;24.638;2023-11-19T12:18:50;97362.00;;;18.44;28.65
10464;BME280;5279;42.048;24.638;2023-11-19T12:21:29;97356.97;;;18.28;29.25
10464;BME280;5279;42.048;24.638;2023-11-19T12:23:58;97353.91;;;17.97;29.43
10464;BME280;5279;42.048;24.638;2023-11-19T12:26:34;97345.03;;;17.96;29.42
10464;BME280;5279;42.048;24.638;2023-11-19T12:29:01;97347.09;;;17.67;29.77
10464;BME280;5279;42.048;24.638;2023-11-19T12:31:32;97353.19;;;17.82;30.01
10464;BME280;5279;42.048;24.638;2023-11-19T12:34:05;97340.34;;;17.49;29.98
10464;BME280;5279;42.048;24.638;2023-11-19T12:36:32;97347.44;;;18.19;29.81
10464;BME280;5279;42.048;24.638;2023-11-19T12:38:59;97340.75;;;18.02;29.93
10464;BME280;5279;42.048;24.638;2023-11-19T12:41:27;97345.72;;;19.20;29.06
10464;BME280;5279;42.048;24.638;2023-11-19T12:44:08;97331.44;;;20.04;27.10
10464;BME280;5279;42.048;24.638;2023-11-19T12:46:36;97328.81;;;19.85;27.75
10464;BME280;5279;42.048;24.638;2023-11-19T12:49:04;97330.91;;;20.53;26.49
10464;BME280;5279;42.048;24.638;2023-11-19T12:51:32;97323.84;;;21.28;25.56
10464;BME280;5279;42.048;24.638;2023-11-19T12:53:59;97328.38;;;19.35;27.36
10464;BME280;5279;42.048;24.638;2023-11-19T12:56:26;97337.19;;;18.29;28.74
10464;BME280;5279;42.048;24.638;2023-11-19T12:58:52;97323.34;;;18.80;29.20
10464;BME280;5279;42.048;24.638;2023-11-19T13:01:20;97341.91;;;18.27;28.96
10464;BME280;5279;42.048;24.638;2023-11-19T13:03:47;97341.13;;;18.94;28.33
10464;BME280;5279;42.048;24.638;2023-11-19T13:06:17;97338.13;;;18.15;29.09
10464;BME280;5279;42.048;24.638;2023-11-19T13:08:47;97326.19;;;18.24;29.84
10464;BME280;5279;42.048;24.638;2023-11-19T13:11:31;97315.91;;;18.82;29.57
10464;BME280;5279;42.048;24.638;2023-11-19T13:13:59;97328.91;;;18.31;29.68
10464;BME280;5279;42.048;24.638;2023-11-19T13:16:27;97330.63;;;17.70;29.72
10464;BME280;5279;42.048;24.638;2023-11-19T13:18:56;97310.75;;;17.58;30.79
10464;BME280;5279;42.048;24.638;2023-11-19T13:21:25;97298.25;;;17.99;29.96